Time;durP1;ratioP1;P1;durP2;ratioP2;P2;SDS_P1;SDS_P2;PMS_P1;PMS_P2;Temp;Humidity;BMP_temperature;BMP_pressure;BME280_temperature;BME280_humidity;BME280_pressure;Samples;Min_cycle;Max_cycle;Signal;HPM_P1;HPM_P2
2023/09/18 00:00:39;;;;;;;1.20;1.10;;;;;;;19.06;79.24;99764.59;5074150;28;20127;-65
2023/09/18 00:03:08;;;;;;;3.90;1.20;;;;;;;19.05;79.39;99768.06;5074046;28;20284;-64
2023/09/18 00:05:37;;;;;;;1.65;1.55;;;;;;;19.09;79.27;99758.47;5074274;28;20041;-64
2023/09/18 00:08:07;;;;;;;2.85;2.03;;;;;;;19.09;79.38;99766.25;5074270;28;20411;-64
2023/09/18 00:10:36;;;;;;;0.80;0.77;;;;;;;19.05;79.42;99770.66;5073926;28;20055;-64
2023/09/18 00:13:05;;;;;;;1.92;1.63;;;;;;;18.98;79.52;99765.78;5074161;28;20463;-65
2023/09/18 00:15:34;;;;;;;2.13;1.92;;;;;;;18.98;79.75;99770.94;5074146;28;20040;-65
2023/09/18 00:18:04;;;;;;;5.13;2.33;;;;;;;18.99;79.83;99763.13;5073775;28;20047;-65
2023/09/18 00:20:33;;;;;;;2.20;1.60;;;;;;;19.04;79.86;99765.56;5074420;28;20543;-64
2023/09/18 00:23:02;;;;;;;2.65;1.98;;;;;;;19.01;79.75;99760.47;5073760;28;20037;-65
2023/09/18 00:25:33;;;;;;;2.88;2.00;;;;;;;19.02;79.87;99762.19;5072877;28;20055;-65
2023/09/18 00:28:02;;;;;;;1.90;1.65;;;;;;;19.01;79.79;99761.31;5073656;28;20053;-64
2023/09/18 00:30:31;;;;;;;0.90;0.90;;;;;;;19.03;79.84;99762.13;5072947;28;20119;-65
2023/09/18 00:33:00;;;;;;;1.60;1.30;;;;;;;19.05;79.83;99759.50;5073696;28;20504;-64
2023/09/18 00:35:29;;;;;;;1.10;1.00;;;;;;;19.08;79.94;99757.63;5073652;28;20040;-65
2023/09/18 00:37:58;;;;;;;2.22;2.03;;;;;;;19.09;79.75;99756.75;5073344;28;20067;-65
2023/09/18 00:40:27;;;;;;;1.05;0.93;;;;;;;19.07;79.87;99763.72;5073641;28;20045;-65
2023/09/18 00:42:58;;;;;;;1.55;1.20;;;;;;;19.10;80.11;99755.84;5073558;28;20496;-65
2023/09/18 00:45:27;;;;;;;1.17;1.08;;;;;;;19.11;80.01;99757.53;5106365;28;20051;-65
2023/09/18 00:47:56;;;;;;;2.58;1.67;;;;;;;19.12;80.17;99758.38;5072129;28;20041;-65
2023/09/18 00:50:26;;;;;;;2.15;1.42;;;;;;;19.10;80.10;99755.84;5072192;28;20131;-65
2023/09/18 00:52:55;;;;;;;2.83;1.50;;;;;;;19.14;80.10;99751.41;5073872;28;20082;-64
2023/09/18 00:55:25;;;;;;;3.88;1.67;;;;;;;19.11;79.89;99756.69;5072318;28;20036;-64
2023/09/18 00:57:58;;;;;;;2.03;1.58;;;;;;;19.06;79.99;99754.25;5073301;28;20048;-64
2023/09/18 01:00:27;;;;;;;1.33;1.23;;;;;;;19.00;80.09;99759.66;5073702;28;20074;-65
2023/09/18 01:02:55;;;;;;;1.58;1.45;;;;;;;19.00;80.21;99757.06;5072251;28;20098;-65
2023/09/18 01:05:25;;;;;;;1.52;1.13;;;;;;;19.05;80.11;99752.56;5073594;28;20036;-65
2023/09/18 01:07:53;;;;;;;2.35;1.90;;;;;;;19.03;79.86;99756.94;5072808;28;20059;-64
2023/09/18 01:10:26;;;;;;;2.13;1.50;;;;;;;18.98;79.98;99755.44;5077678;28;20043;-64
2023/09/18 01:13:06;;;;;;;1.70;1.27;;;;;;;18.96;80.06;99757.19;5077660;28;20053;-64
2023/09/18 01:15:44;;;;;;;1.77;1.42;;;;;;;18.93;80.32;99746.97;5077409;28;20049;-65
2023/09/18 01:18:13;;;;;;;1.20;1.10;;;;;;;18.90;80.34;99749.66;5077377;28;20048;-65
2023/09/18 01:20:42;;;;;;;1.67;1.13;;;;;;;18.90;80.32;99744.47;5077245;28;20055;-65
2023/09/18 01:23:12;;;;;;;3.07;2.40;;;;;;;18.90;80.42;99747.06;5077207;28;20119;-64
2023/09/18 01:25:42;;;;;;;1.75;1.65;;;;;;;18.87;80.26;99748.00;5077219;28;20048;-65
2023/09/18 01:28:11;;;;;;;1.97;1.50;;;;;;;18.86;80.57;99750.66;5075916;28;20043;-65
2023/09/18 01:30:41;;;;;;;1.50;1.40;;;;;;;18.85;80.42;99744.63;5077490;28;20711;-65
2023/09/18 01:33:11;;;;;;;1.27;1.13;;;;;;;18.84;80.50;99737.75;5077622;28;20071;-65
2023/09/18 01:35:41;;;;;;;0.75;0.75;;;;;;;18.81;80.55;99747.38;5077285;28;20040;-65
2023/09/18 01:38:12;;;;;;;3.45;1.70;;;;;;;18.77;80.60;99746.63;5076562;28;20051;-65
2023/09/18 01:40:43;;;;;;;2.55;2.10;;;;;;;18.77;80.76;99738.00;5076865;28;20496;-65
2023/09/18 01:43:12;;;;;;;3.33;2.08;;;;;;;18.78;80.64;99742.31;5076816;28;20515;-65
2023/09/18 01:45:41;;;;;;;1.75;1.58;;;;;;;18.78;80.59;99742.31;5075566;28;20036;-65
2023/09/18 01:48:10;;;;;;;1.75;1.65;;;;;;;18.69;80.86;99744.28;5076988;28;20492;-65
2023/09/18 01:50:40;;;;;;;1.95;1.60;;;;;;;18.63;80.98;99738.47;5075656;28;20041;-64
2023/09/18 01:53:09;;;;;;;0.85;0.85;;;;;;;18.57;81.30;99731.75;5076049;28;20075;-65
2023/09/18 01:55:41;;;;;;;2.20;1.90;;;;;;;18.63;81.38;99735.88;5076607;28;20046;-65
2023/09/18 01:58:14;;;;;;;1.35;1.25;;;;;;;18.61;81.27;99735.94;5076821;28;20080;-65
2023/09/18 02:00:45;;;;;;;0.90;0.90;;;;;;;18.56;81.31;99732.66;5075220;28;20082;-65
2023/09/18 02:03:18;;;;;;;4.00;1.23;;;;;;;18.58;81.39;99738.63;5076819;28;20127;-65
2023/09/18 02:06:07;;;;;;;1.00;0.93;;;;;;;18.58;81.46;99740.34;5108978;28;20047;-64
2023/09/18 02:08:36;;;;;;;1.30;1.17;;;;;;;18.54;81.52;99744.78;5109011;28;20067;-65
2023/09/18 02:11:07;;;;;;;1.73;1.58;;;;;;;18.53;81.63;99737.91;5076148;28;20045;-65
2023/09/18 02:13:36;;;;;;;2.53;1.65;;;;;;;18.57;81.47;99731.75;5076268;28;20559;-65
2023/09/18 02:16:05;;;;;;;1.98;1.88;;;;;;;18.56;81.56;99732.66;5076188;28;20059;-65
2023/09/18 02:18:34;;;;;;;;;;;;;;;18.53;81.56;99732.75;5076753;28;20416;-65
2023/09/18 02:21:03;;;;;;;1.45;1.35;;;;;;;18.54;81.61;99731.88;5076380;28;19943;-65
2023/09/18 02:23:31;;;;;;;2.15;1.88;;;;;;;18.54;81.37;99724.13;5075164;28;20098;-64
2023/09/18 02:26:00;;;;;;;1.40;1.30;;;;;;;18.51;81.57;99729.38;5074870;28;20041;-65
2023/09/18 02:28:34;;;;;;;2.35;1.50;;;;;;;18.53;81.47;99726.72;5076367;28;20051;-65
2023/09/18 02:31:03;;;;;;;1.10;1.00;;;;;;;18.51;81.41;99721.63;5075805;28;20055;-65
2023/09/18 02:33:32;;;;;;;2.50;1.92;;;;;;;18.47;81.35;99717.44;5074958;28;20093;-64
2023/09/18 02:36:01;;;;;;;0.73;0.73;;;;;;;18.41;81.36;99719.34;5076207;28;20068;-64
2023/09/18 02:38:31;;;;;;;1.65;1.55;;;;;;;18.34;81.54;99721.28;5075420;28;20055;-64
2023/09/18 02:41:01;;;;;;;1.90;1.27;;;;;;;18.33;81.79;99713.59;5076090;28;20117;-65
2023/09/18 02:43:30;;;;;;;5.80;2.55;;;;;;;18.29;81.86;99712.81;5074573;28;20048;-65
2023/09/18 02:46:01;;;;;;;3.22;1.98;;;;;;;18.32;81.83;99717.91;5108687;28;20043;-65
2023/09/18 02:48:30;;;;;;;2.20;1.58;;;;;;;18.27;81.83;99719.78;5075688;28;20049;-65
2023/09/18 02:51:00;;;;;;;1.67;1.25;;;;;;;18.29;81.76;99715.41;5108163;28;20029;-65
2023/09/18 02:53:31;;;;;;;1.05;0.95;;;;;;;18.21;81.70;99714.78;5108629;28;20048;-65
2023/09/18 02:56:01;;;;;;;9.93;2.22;;;;;;;18.15;82.02;99714.13;5074525;28;20515;-65
2023/09/18 02:58:30;;;;;;;;;;;;;;;18.13;82.18;99721.94;5076370;28;20044;-65
2023/09/18 03:01:02;;;;;;;2.15;1.25;;;;;;;18.04;82.34;99727.41;5075675;28;20008;-65
2023/09/18 03:03:31;;;;;;;2.50;1.63;;;;;;;17.94;82.63;99725.97;5107892;28;20044;-65
2023/09/18 03:06:04;;;;;;;2.70;1.83;;;;;;;18.02;82.73;99729.16;5075263;28;20044;-65
2023/09/18 03:08:34;;;;;;;2.58;1.58;;;;;;;18.05;82.75;99723.91;5107916;28;20128;-65
2023/09/18 03:11:12;;;;;;;2.45;1.98;;;;;;;18.03;82.89;99723.13;5075676;28;20488;-65
2023/09/18 03:13:46;;;;;;;3.00;2.30;;;;;;;18.11;82.96;99712.56;5073861;28;20051;-65
2023/09/18 03:16:18;;;;;;;2.00;1.80;;;;;;;18.18;82.94;99709.75;5075343;28;20455;-65
2023/09/18 03:18:48;;;;;;;3.83;2.85;;;;;;;18.20;82.78;99707.94;5075105;28;20400;-65
2023/09/18 03:21:17;;;;;;;;;;;;;;;18.23;82.61;99701.84;5074131;28;20049;-65
2023/09/18 03:23:46;;;;;;;2.58;1.90;;;;;;;18.22;82.59;99702.72;5074806;28;20426;-65
2023/09/18 03:26:15;;;;;;;1.92;1.65;;;;;;;18.13;82.41;99696.13;5107545;28;20047;-64
2023/09/18 03:28:44;;;;;;;1.05;1.00;;;;;;;18.08;82.78;99698.00;5074912;28;20036;-65
2023/09/18 03:31:13;;;;;;;1.43;1.33;;;;;;;18.12;82.93;99703.88;5074143;28;20459;-65
2023/09/18 03:33:44;;;;;;;0.88;0.77;;;;;;;18.16;82.79;99700.34;5073950;28;20645;-65
2023/09/18 03:36:13;;;;;;;1.42;1.33;;;;;;;18.16;82.88;99693.44;5073762;28;20396;-65
2023/09/18 03:38:43;;;;;;;2.92;1.33;;;;;;;18.21;82.71;99694.13;5074385;28;20048;-65
2023/09/18 03:41:11;;;;;;;1.65;1.55;;;;;;;18.21;82.60;99696.69;5073448;28;20072;-65
2023/09/18 03:43:40;;;;;;;2.35;1.90;;;;;;;18.21;82.54;99694.13;5073308;28;20040;-65
2023/09/18 03:46:09;;;;;;;2.05;1.85;;;;;;;18.16;82.64;99696.03;5073125;28;20036;-65
2023/09/18 03:48:47;;;;;;;1.95;1.60;;;;;;;18.15;82.60;99686.56;5074395;28;20124;-65
2023/09/18 03:51:18;;;;;;;1.23;1.13;;;;;;;18.16;82.71;99684.84;5073226;28;20045;-65
2023/09/18 03:53:48;;;;;;;2.03;1.67;;;;;;;18.08;82.48;99685.94;5073591;28;20078;-65
2023/09/18 03:56:17;;;;;;;1.90;1.75;;;;;;;18.04;82.75;99686.88;5057150;28;20041;-65
2023/09/18 03:58:49;;;;;;;1.75;1.40;;;;;;;18.04;82.71;99683.50;5073321;28;20045;-65
2023/09/18 04:01:18;;;;;;;2.05;1.33;;;;;;;18.02;82.70;99677.50;5074440;28;20052;-65
2023/09/18 04:03:49;;;;;;;1.80;1.55;;;;;;;18.06;82.93;99673.94;5073040;28;20101;-65
2023/09/18 04:06:20;;;;;;;2.90;1.80;;;;;;;18.09;82.83;99679.03;5074035;28;20499;-65
2023/09/18 04:08:49;;;;;;;1.33;1.20;;;;;;;18.02;82.76;99673.19;5074103;28;20067;-65
2023/09/18 04:11:19;;;;;;;1.80;1.50;;;;;;;17.96;83.06;99660.47;5073145;28;20049;-65
2023/09/18 04:13:48;;;;;;;2.15;1.05;;;;;;;18.01;83.16;99670.66;5072625;28;20048;-65
2023/09/18 04:16:17;;;;;;;2.27;1.63;;;;;;;18.01;83.12;99665.50;5074101;28;20061;-65
2023/09/18 04:18:48;;;;;;;1.98;1.65;;;;;;;18.04;83.08;99666.22;5106438;28;20127;-65
2023/09/18 04:21:17;;;;;;;1.63;1.50;;;;;;;18.07;83.00;99660.13;5074197;28;20061;-65
2023/09/18 04:23:46;;;;;;;3.35;1.70;;;;;;;18.05;83.03;99651.59;5072541;28;20037;-65
2023/09/18 04:26:15;;;;;;;1.48;1.38;;;;;;;18.03;83.23;99658.53;5106170;28;20045;-65
2023/09/18 04:28:44;;;;;;;;;;;;;;;18.02;82.82;99656.84;5074280;28;20048;-65
2023/09/18 04:31:14;;;;;;;2.33;2.13;;;;;;;17.95;83.24;99656.19;5072986;28;19920;-65
2023/09/18 04:33:45;;;;;;;6.55;2.05;;;;;;;17.96;83.11;99655.31;5072579;28;20430;-65
2023/09/18 04:36:16;;;;;;;1.95;1.65;;;;;;;17.94;83.28;99654.53;5073652;28;20095;-64
2023/09/18 04:38:45;;;;;;;2.13;1.63;;;;;;;17.99;83.34;99656.97;5073699;28;20049;-65
2023/09/18 04:41:15;;;;;;;2.85;1.92;;;;;;;18.06;83.39;99653.28;5072428;28;20072;-65
2023/09/18 04:43:44;;;;;;;2.45;1.88;;;;;;;18.06;83.19;99653.28;5072622;28;20127;-65
2023/09/18 04:46:13;;;;;;;2.63;1.95;;;;;;;18.09;83.23;99653.19;5072277;28;20045;-65
2023/09/18 04:48:42;;;;;;;1.38;1.05;;;;;;;18.09;83.15;99648.84;5072321;28;20090;-65
2023/09/18 04:51:12;;;;;;;2.40;1.30;;;;;;;18.09;83.13;99643.69;5073197;28;20065;-65
2023/09/18 04:53:42;;;;;;;1.30;1.20;;;;;;;18.05;83.41;99636.09;5106008;28;20063;-65
2023/09/18 04:56:11;;;;;;;1.75;1.50;;;;;;;18.12;83.46;99636.72;5072094;28;20102;-65
2023/09/18 04:58:40;;;;;;;5.32;2.25;;;;;;;18.20;83.50;99625.28;5072362;28;20144;-65
2023/09/18 05:01:11;;;;;;;2.03;1.58;;;;;;;18.24;83.46;99620.81;5105996;28;20120;-65
2023/09/18 05:03:41;;;;;;;2.80;1.65;;;;;;;18.29;83.20;99624.97;5073712;28;20045;-65
2023/09/18 05:06:12;;;;;;;1.38;1.17;;;;;;;18.29;83.12;99630.13;5105825;28;20055;-65
2023/09/18 05:08:42;;;;;;;2.15;1.83;;;;;;;18.27;83.23;99626.75;5073567;28;20040;-65
2023/09/18 05:11:11;;;;;;;2.55;2.05;;;;;;;18.32;83.26;99624.00;5073253;28;20048;-65
2023/09/18 05:13:42;;;;;;;1.42;1.27;;;;;;;18.32;83.16;99630.03;5073187;28;20086;-65
2023/09/18 05:16:13;;;;;;;1.85;1.55;;;;;;;18.35;83.16;99629.94;5073785;28;20045;-64
2023/09/18 05:18:42;;;;;;;1.58;1.48;;;;;;;18.38;83.38;99635.00;5073425;28;20073;-65
2023/09/18 05:21:11;;;;;;;1.58;1.48;;;;;;;18.38;83.40;99632.41;5106084;28;20096;-65
2023/09/18 05:23:40;;;;;;;3.90;1.40;;;;;;;18.46;83.26;99640.78;5073142;28;20078;-65
2023/09/18 05:26:11;;;;;;;3.03;1.67;;;;;;;18.48;83.23;99633.81;5073106;28;20273;-65
2023/09/18 05:28:39;;;;;;;2.17;1.98;;;;;;;18.51;83.35;99631.16;5073074;28;20127;-65
2023/09/18 05:31:09;;;;;;;3.85;1.98;;;;;;;18.54;83.43;99633.63;5073326;28;20496;-65
2023/09/18 05:33:38;;;;;;;1.23;1.13;;;;;;;18.63;83.51;99635.91;5072928;28;20037;-65
2023/09/18 05:36:07;;;;;;;5.27;1.67;;;;;;;18.73;83.43;99632.09;5073026;28;20044;-65
2023/09/18 05:38:36;;;;;;;22.05;2.90;;;;;;;18.79;83.33;99620.69;5072813;28;20680;-65
2023/09/18 05:41:06;;;;;;;2.05;1.75;;;;;;;18.84;83.13;99620.53;5073526;28;20486;-65
2023/09/18 05:43:36;;;;;;;2.30;1.52;;;;;;;18.98;83.06;99620.91;5073262;28;20145;-65
2023/09/18 05:46:05;;;;;;;2.10;1.90;;;;;;;19.03;83.09;99617.22;5072906;28;20136;-65
2023/09/18 05:48:34;;;;;;;2.50;1.33;;;;;;;19.11;83.16;99616.97;5072894;28;20048;-65
2023/09/18 05:51:03;;;;;;;1.00;0.90;;;;;;;19.21;83.16;99618.31;5073388;28;20113;-65
2023/09/18 05:53:34;;;;;;;1.80;1.52;;;;;;;19.28;82.99;99619.78;5072800;28;20041;-65
2023/09/18 05:56:04;;;;;;;1.48;1.38;;;;;;;19.35;82.69;99605.72;5109460;28;20132;-64
2023/09/18 05:58:35;;;;;;;2.75;1.80;;;;;;;19.48;83.01;99595.78;5076426;28;20090;-65
2023/09/18 06:01:05;;;;;;;3.45;1.77;;;;;;;19.58;82.92;99597.94;5076150;28;20071;-65
2023/09/18 06:03:35;;;;;;;2.13;1.92;;;;;;;19.68;82.92;99601.00;5076685;28;20044;-64
2023/09/18 06:06:05;;;;;;;2.17;1.63;;;;;;;19.77;82.75;99609.25;5076601;28;20045;-65
2023/09/18 06:08:33;;;;;;;2.55;1.80;;;;;;;19.86;82.54;99608.06;5076267;28;20045;-65
2023/09/18 06:11:02;;;;;;;2.58;1.88;;;;;;;19.95;82.45;99605.97;5076788;28;20029;-65
2023/09/18 06:13:31;;;;;;;2.03;1.23;;;;;;;20.06;82.13;99608.94;5076070;28;20072;-65
2023/09/18 06:16:07;;;;;;;4.13;1.25;;;;;;;20.17;82.04;99603.34;5077092;28;20063;-65
2023/09/18 06:18:38;;;;;;;3.83;1.75;;;;;;;20.28;81.88;99601.19;5076300;28;20041;-64
2023/09/18 06:21:07;;;;;;;2.83;1.75;;;;;;;20.42;81.52;99598.03;5076181;28;20051;-64
2023/09/18 06:23:35;;;;;;;0.60;0.60;;;;;;;20.55;81.80;99596.59;5076097;28;20049;-64
2023/09/18 06:26:04;;;;;;;1.60;1.50;;;;;;;20.69;81.26;99587.31;5076405;28;20083;-64
2023/09/18 06:28:33;;;;;;;1.13;0.88;;;;;;;20.84;81.28;99596.19;5076218;28;20040;-64
2023/09/18 06:31:02;;;;;;;1.65;1.40;;;;;;;20.97;80.80;99592.13;5075764;28;20037;-64
2023/09/18 06:33:31;;;;;;;1.83;1.38;;;;;;;21.08;80.36;99589.09;5075843;28;20488;-64
2023/09/18 06:36:02;;;;;;;1.67;1.58;;;;;;;21.12;79.95;99591.47;5075716;28;20055;-64
2023/09/18 06:38:30;;;;;;;1.05;0.73;;;;;;;21.25;79.68;99590.03;5075690;28;20440;-64
2023/09/18 06:40:59;;;;;;;1.20;1.05;;;;;;;21.38;79.56;99591.13;5075726;28;20048;-64
2023/09/18 06:43:28;;;;;;;1.27;1.17;;;;;;;21.59;78.89;99586.72;5075680;28;20106;-64
2023/09/18 06:45:58;;;;;;;1.58;1.48;;;;;;;21.76;77.23;99583.31;5076038;28;20037;-63
2023/09/18 06:48:27;;;;;;;2.15;1.33;;;;;;;21.88;76.33;99585.34;5075783;28;20044;-64
2023/09/18 06:50:56;;;;;;;2.13;1.83;;;;;;;22.01;75.41;99589.03;5075604;28;20542;-65
2023/09/18 06:53:26;;;;;;;0.70;0.70;;;;;;;22.14;74.67;99595.31;5075361;28;20049;-64
2023/09/18 06:55:55;;;;;;;2.85;0.90;;;;;;;22.34;73.68;99586.53;5075475;28;20515;-64
2023/09/18 06:58:25;;;;;;;1.92;1.63;;;;;;;22.47;73.00;99587.59;5075503;28;20051;-65
2023/09/18 07:00:54;;;;;;;3.25;1.55;;;;;;;22.64;72.26;99591.06;5075209;28;20484;-63
2023/09/18 07:03:23;;;;;;;1.38;1.27;;;;;;;22.75;72.00;99576.66;5075607;28;20140;-64
2023/09/18 07:05:52;;;;;;;;;;;;;;;22.81;72.03;99576.31;5074743;28;20046;-64
2023/09/18 07:08:23;;;;;;;0.77;0.77;;;;;;;22.93;72.01;99575.69;5075416;28;19928;-64
2023/09/18 07:10:53;;;;;;;1.17;1.00;;;;;;;23.05;70.90;99569.81;5075533;28;20070;-67
2023/09/18 07:13:22;;;;;;;1.55;1.27;;;;;;;23.14;69.82;99579.75;5075330;28;20137;-67
2023/09/18 07:15:51;;;;;;;0.83;0.80;;;;;;;23.19;69.41;99573.38;5075336;28;20404;-65
2023/09/18 07:18:20;;;;;;;1.48;1.15;;;;;;;23.31;69.30;99571.88;5075011;28;20296;-67
2023/09/18 07:20:48;;;;;;;1.30;1.20;;;;;;;23.41;68.51;99569.63;5074937;28;20131;-69
2023/09/18 07:23:17;;;;;;;2.03;1.85;;;;;;;23.46;67.86;99563.25;5057318;28;20565;-65
2023/09/18 07:25:49;;;;;;;2.97;1.85;;;;;;;23.55;67.59;99567.94;5074832;28;20106;-68
2023/09/18 07:28:19;;;;;;;1.42;0.77;;;;;;;23.56;66.97;99556.59;5074802;28;20044;-66
2023/09/18 07:30:48;;;;;;;0.93;0.93;;;;;;;23.62;66.71;99548.44;5074750;28;20053;-68
2023/09/18 07:33:19;;;;;;;2.00;1.48;;;;;;;23.70;66.51;99555.81;5075012;28;20071;-67
2023/09/18 07:35:51;;;;;;;1.05;0.93;;;;;;;23.75;66.05;99546.00;5075000;28;20072;-65
2023/09/18 07:38:20;;;;;;;1.95;1.40;;;;;;;23.84;65.68;99546.31;5074326;28;20048;-66
2023/09/18 07:40:50;;;;;;;1.88;1.63;;;;;;;23.91;65.40;99541.56;5074542;28;20048;-67
2023/09/18 07:43:20;;;;;;;1.83;1.50;;;;;;;24.02;64.75;99549.59;5074801;28;20063;-66
2023/09/18 07:45:50;;;;;;;1.33;1.13;;;;;;;24.02;64.57;99546.19;5074725;28;20047;-66
2023/09/18 07:48:20;;;;;;;0.82;0.82;;;;;;;23.99;64.23;99544.59;5075315;28;20486;-66
2023/09/18 07:50:50;;;;;;;2.08;1.33;;;;;;;24.00;64.11;99546.25;5073470;28;20064;-67
2023/09/18 07:53:20;;;;;;;0.63;0.63;;;;;;;24.02;64.24;99538.34;5074339;28;20048;-67
2023/09/18 07:55:50;;;;;;;0.68;0.68;;;;;;;24.06;64.08;99551.13;5074088;28;20097;-67
2023/09/18 07:58:20;;;;;;;1.55;0.95;;;;;;;24.18;63.97;99542.63;5074508;28;20051;-71
2023/09/18 08:00:53;;;;;;;1.42;1.33;;;;;;;24.28;63.48;99545.53;5074233;28;20048;-66
2023/09/18 08:03:22;;;;;;;2.08;0.80;;;;;;;24.35;63.35;99552.06;5074371;28;20056;-67
2023/09/18 08:05:53;;;;;;;0.95;0.90;;;;;;;24.40;62.74;99555.25;5073041;28;20074;-69
2023/09/18 08:08:23;;;;;;;1.13;1.02;;;;;;;24.43;62.68;99544.59;5074627;28;20052;-66
2023/09/18 08:10:53;;;;;;;1.00;0.73;;;;;;;24.56;62.52;99542.94;5074376;28;20041;-69
2023/09/18 08:13:24;;;;;;;0.77;0.77;;;;;;;24.67;61.92;99543.13;5074018;28;20044;-65
2023/09/18 08:15:53;;;;;;;0.95;0.88;;;;;;;24.72;61.55;99541.09;5074017;28;20072;-65
2023/09/18 08:18:26;;;;;;;1.92;1.60;;;;;;;24.73;61.09;99552.38;5073800;28;20526;-71
2023/09/18 08:20:57;;;;;;;1.75;1.60;;;;;;;24.74;61.14;99565.31;5074111;28;20090;-68
2023/09/18 08:23:26;;;;;;;1.50;1.40;;;;;;;24.83;61.19;99557.00;5074418;28;20052;-67
2023/09/18 08:25:57;;;;;;;2.05;1.48;;;;;;;24.88;60.89;99562.78;5074287;28;20155;-66
2023/09/18 08:28:27;;;;;;;1.63;1.05;;;;;;;25.02;60.48;99565.38;5073695;28;20055;-69
2023/09/18 08:30:58;;;;;;;0.85;0.80;;;;;;;25.11;60.11;99559.59;5073947;28;20090;-66
2023/09/18 08:33:27;;;;;;;0.85;0.75;;;;;;;25.20;60.29;99558.16;5073649;28;20055;-67
2023/09/18 08:35:56;;;;;;;1.58;1.15;;;;;;;25.18;60.15;99550.44;5073680;28;20086;-67
2023/09/18 08:38:25;;;;;;;4.80;1.67;;;;;;;25.22;59.68;99559.75;5073425;28;20040;-65
2023/09/18 08:40:56;;;;;;;1.15;1.00;;;;;;;25.28;59.76;99559.38;5073620;28;20090;-70
2023/09/18 08:43:28;;;;;;;1.25;1.02;;;;;;;25.37;59.83;99554.47;5073878;28;20529;-68
2023/09/18 08:46:01;;;;;;;1.05;1.00;;;;;;;25.31;59.59;99546.09;5073500;28;20049;-67
2023/09/18 08:48:34;;;;;;;0.68;0.57;;;;;;;25.41;59.64;99546.34;5073103;28;20403;-68
2023/09/18 08:51:05;;;;;;;3.22;1.48;;;;;;;25.50;58.72;99556.28;5072690;28;20053;-66
2023/09/18 08:53:37;;;;;;;1.00;0.88;;;;;;;25.70;58.77;99562.81;5073573;28;20048;-66
2023/09/18 08:56:09;;;;;;;1.00;0.90;;;;;;;25.80;58.16;99559.53;5073268;28;20523;-67
2023/09/18 08:58:42;;;;;;;0.65;0.65;;;;;;;25.91;58.37;99567.50;5074108;28;20119;-69
2023/09/18 09:01:12;;;;;;;2.10;1.40;;;;;;;26.00;57.58;99570.47;5073649;28;20503;-66
2023/09/18 09:03:42;;;;;;;0.98;0.85;;;;;;;26.11;57.79;99561.00;5073520;28;20041;-64
2023/09/18 09:06:13;;;;;;;1.25;0.90;;;;;;;25.91;57.18;99550.97;5073556;28;20132;-67
2023/09/18 09:08:42;;;;;;;2.35;1.38;;;;;;;25.92;57.35;99557.88;5073088;28;20037;-67
2023/09/18 09:11:11;;;;;;;1.23;1.08;;;;;;;25.95;57.39;99547.22;5073213;28;20055;-65
2023/09/18 09:13:41;;;;;;;1.55;1.23;;;;;;;26.11;57.00;99537.44;5073348;28;20028;-69
2023/09/18 09:16:15;;;;;;;1.42;1.10;;;;;;;26.22;56.88;99540.19;5073435;28;20063;-65
2023/09/18 09:18:50;;;;;;;2.47;1.20;;;;;;;26.29;56.53;99535.38;5073068;28;20575;-67
2023/09/18 09:21:20;;;;;;;1.40;1.00;;;;;;;26.27;56.51;99537.28;5073178;28;20106;-68
2023/09/18 09:23:51;;;;;;;1.00;0.90;;;;;;;26.18;56.39;99533.47;5073389;28;20044;-70
2023/09/18 09:26:23;;;;;;;0.70;0.70;;;;;;;26.08;56.70;99534.19;5073105;28;20110;-68
2023/09/18 09:28:55;;;;;;;2.92;1.25;;;;;;;26.25;56.69;99534.72;5073740;28;20052;-67
2023/09/18 09:31:26;;;;;;;1.60;1.30;;;;;;;26.39;55.95;99523.34;5077363;28;20048;-69
2023/09/18 09:33:55;;;;;;;0.77;0.77;;;;;;;26.33;56.27;99514.13;5077186;28;20051;-67
2023/09/18 09:36:25;;;;;;;1.60;1.42;;;;;;;26.36;56.38;99515.69;5075708;28;20146;-67
2023/09/18 09:38:57;;;;;;;0.95;0.82;;;;;;;26.44;56.40;99527.31;5076630;28;20443;-68
2023/09/18 09:41:27;;;;;;;0.93;0.90;;;;;;;26.47;56.15;99529.72;5077997;28;20357;-66
2023/09/18 09:43:58;;;;;;;1.25;1.13;;;;;;;26.49;56.00;99525.22;5076799;28;20500;-66
2023/09/18 09:46:28;;;;;;;1.40;0.82;;;;;;;26.50;55.80;99534.75;5077107;28;20522;-67
2023/09/18 09:49:01;;;;;;;1.85;1.45;;;;;;;26.48;56.29;99536.66;5076649;28;20044;-71
2023/09/18 09:51:30;;;;;;;3.30;1.90;;;;;;;26.39;55.62;99532.06;5076676;28;20072;-70
2023/09/18 09:54:00;;;;;;;1.27;1.10;;;;;;;26.25;55.50;99524.25;5076598;28;20044;-64
2023/09/18 09:56:40;;;;;;;;;;;;;;;26.19;56.30;99521.22;5076829;28;20041;-66
2023/09/18 09:59:11;;;;;;;1.38;0.93;;;;;;;26.09;56.15;99517.50;5076840;28;19921;-67
2023/09/18 10:01:41;;;;;;;1.20;1.02;;;;;;;26.16;56.09;99524.88;5075288;28;20052;-70
2023/09/18 10:04:11;;;;;;;;;;;;;;;26.23;56.22;99510.44;5077152;28;20128;-67
2023/09/18 10:06:44;;;;;;;1.00;0.90;;;;;;;26.34;56.03;99518.44;5076618;28;20003;-67
2023/09/18 10:09:14;;;;;;;0.70;0.70;;;;;;;26.38;55.73;99514.66;5076936;28;20044;-66
2023/09/18 10:11:47;;;;;;;1.42;1.02;;;;;;;26.48;55.45;99500.00;5076717;28;20036;-65
2023/09/18 10:14:20;;;;;;;2.80;1.85;;;;;;;26.61;55.52;99497.34;5076247;28;20052;-66
2023/09/18 10:16:55;;;;;;;1.33;1.23;;;;;;;26.67;55.02;99496.09;5076229;28;20110;-67
2023/09/18 10:19:33;;;;;;;0.80;0.80;;;;;;;26.72;55.05;99486.13;5076472;28;20041;-70
2023/09/18 10:22:10;;;;;;;1.23;0.80;;;;;;;26.82;54.95;99485.44;5076217;28;20056;-70
2023/09/18 10:24:43;;;;;;;2.28;1.50;;;;;;;26.95;54.72;99488.00;5076088;28;20055;-67
2023/09/18 10:27:14;;;;;;;9.07;1.88;;;;;;;27.04;53.88;99487.38;5075971;28;20051;-66
2023/09/18 10:29:47;;;;;;;1.08;0.93;;;;;;;27.09;53.65;99495.75;5075987;28;20047;-65
2023/09/18 10:32:20;;;;;;;0.63;0.63;;;;;;;26.94;53.57;99492.44;5076208;28;20396;-65
2023/09/18 10:34:49;;;;;;;7.40;1.38;;;;;;;26.81;54.13;99486.38;5076548;28;20480;-63
2023/09/18 10:37:20;;;;;;;1.90;1.23;;;;;;;27.00;53.97;99488.50;5076025;28;20502;-67
2023/09/18 10:39:51;;;;;;;1.38;1.05;;;;;;;27.09;53.67;99487.88;5075332;28;20055;-68
2023/09/18 10:42:24;;;;;;;1.35;1.10;;;;;;;27.16;53.50;99481.25;5074976;28;20485;-69
2023/09/18 10:44:55;;;;;;;1.33;0.82;;;;;;;27.30;53.39;99478.47;5075699;28;20040;-68
2023/09/18 10:47:25;;;;;;;0.90;0.85;;;;;;;27.30;53.27;99481.09;5075705;28;20059;-70
2023/09/18 10:49:53;;;;;;;;;;;;;;;27.21;52.96;99487.00;5075891;28;20063;-69
2023/09/18 10:52:22;;;;;;;1.40;1.30;;;;;;;27.11;53.32;99480.75;5075537;28;19921;-68
2023/09/18 10:54:52;;;;;;;1.13;1.02;;;;;;;27.03;53.33;99477.81;5075796;28;20045;-66
2023/09/18 10:57:21;;;;;;;0.82;0.82;;;;;;;27.15;53.80;99475.16;5075328;28;20101;-68
2023/09/18 10:59:57;;;;;;;2.95;1.58;;;;;;;27.25;53.29;99470.94;5076014;28;20079;-65
2023/09/18 11:02:29;;;;;;;1.05;0.95;;;;;;;27.30;53.28;99464.53;5075344;28;20048;-68
2023/09/18 11:04:58;;;;;;;1.92;1.63;;;;;;;27.26;52.96;99456.88;5075412;28;20048;-68
2023/09/18 11:07:27;;;;;;;2.03;1.08;;;;;;;27.19;52.87;99475.78;5075533;28;20041;-68
2023/09/18 11:09:55;;;;;;;3.97;2.30;;;;;;;27.08;53.42;99468.69;5075498;28;20086;-71
2023/09/18 11:12:44;;;;;;;2.75;1.48;;;;;;;27.15;53.80;99469.09;5075184;28;20048;-68
2023/09/18 11:15:27;;;;;;;1.73;1.38;;;;;;;27.30;53.06;99462.75;5075113;28;20040;-68
2023/09/18 11:18:02;;;;;;;2.50;1.42;;;;;;;27.33;53.30;99459.88;5075134;28;20052;-71
2023/09/18 11:20:37;;;;;;;2.05;1.85;;;;;;;27.46;53.12;99452.84;5074983;28;20070;-70
2023/09/18 11:23:18;;;;;;;3.42;1.45;;;;;;;27.66;52.43;99440.88;5074900;28;20041;-68
2023/09/18 11:25:48;;;;;;;1.30;1.00;;;;;;;27.76;51.77;99442.66;5075208;28;20056;-67
2023/09/18 11:28:24;;;;;;;4.05;1.23;;;;;;;27.65;51.86;99437.41;5075109;28;20040;-69
2023/09/18 11:30:58;;;;;;;1.45;1.27;;;;;;;27.76;51.98;99440.03;5075066;28;20051;-69
2023/09/18 11:33:36;;;;;;;2.08;1.63;;;;;;;27.77;51.62;99426.00;5074809;28;20071;-68
2023/09/18 11:36:07;;;;;;;2.20;1.65;;;;;;;27.75;51.18;99421.81;5074519;28;20123;-67
2023/09/18 11:38:52;;;;;;;1.08;0.98;;;;;;;27.61;51.62;99420.22;5074723;28;20492;-70
2023/09/18 11:41:27;;;;;;;1.38;1.10;;;;;;;27.42;51.91;99435.66;5074557;28;20047;-71
2023/09/18 11:44:23;;;;;;;1.45;1.10;;;;;;;27.35;52.16;99434.41;5074894;28;20032;-68
2023/09/18 11:46:55;;;;;;;1.65;1.20;;;;;;;27.35;52.28;99444.91;5074327;28;20078;-71
2023/09/18 11:49:26;;;;;;;1.20;1.00;;;;;;;27.31;52.33;99427.69;5074485;28;20056;-70